Time;durP1;ratioP1;P1;durP2;ratioP2;P2;SDS_P1;SDS_P2;PMS_P1;PMS_P2;Temp;Humidity;BMP_temperature;BMP_pressure;BME280_temperature;BME280_humidity;BME280_pressure;Samples;Min_cycle;Max_cycle;Signal;HPM_P1;HPM_P2
2021/09/17 00:03:55;;;;;;;3.17;0.30;;;;;;;14.62;84.36;101311.50;10189549;28;20101;-68
2021/09/17 00:08:52;;;;;;;7.13;0.70;;;;;;;14.60;84.01;101308.31;10187945;28;20555;-67
2021/09/17 00:13:48;;;;;;;3.35;0.57;;;;;;;14.62;83.84;101312.34;10185151;28;20041;-67
2021/09/17 00:18:45;;;;;;;3.30;0.45;;;;;;;14.62;83.29;101306.00;10189477;28;20042;-66
2021/09/17 00:23:41;;;;;;;6.28;0.60;;;;;;;14.62;82.49;101301.34;10192525;28;20096;-67
2021/09/17 00:28:38;;;;;;;6.85;0.60;;;;;;;14.55;82.46;101305.72;10189388;28;20046;-67
2021/09/17 00:33:34;;;;;;;8.75;0.73;;;;;;;14.51;82.48;101295.34;10190656;28;20069;-68
2021/09/17 00:38:31;;;;;;;2.65;0.50;;;;;;;14.53;82.03;101297.78;10189661;28;20494;-67
2021/09/17 00:43:27;;;;;;;4.45;0.55;;;;;;;14.50;81.41;101299.25;10189401;28;20080;-67
2021/09/17 00:48:24;;;;;;;1.20;0.20;;;;;;;14.53;81.68;101304.09;10185371;28;20084;-67
2021/09/17 00:53:20;;;;;;;2.92;0.73;;;;;;;14.52;81.37;101301.66;10189696;28;20074;-69
2021/09/17 00:58:17;;;;;;;3.38;0.32;;;;;;;14.50;81.79;101303.91;10192202;28;20050;-68
2021/09/17 01:03:13;;;;;;;3.72;0.40;;;;;;;14.51;81.37;101302.81;10183174;28;20073;-69
2021/09/17 01:08:10;;;;;;;4.70;0.40;;;;;;;14.50;81.46;101304.75;10177181;28;20479;-67
2021/09/17 01:13:07;;;;;;;5.70;0.55;;;;;;;14.49;80.76;101303.13;10187017;28;20172;-68
2021/09/17 01:18:03;;;;;;;4.68;0.32;;;;;;;14.44;80.42;101295.06;10185444;28;20502;-67
2021/09/17 01:23:00;;;;;;;4.15;0.45;;;;;;;14.47;80.99;101299.88;10186969;28;20904;-72
2021/09/17 01:27:56;;;;;;;2.38;0.30;;;;;;;14.48;80.67;101290.50;10190714;28;20401;-68
2021/09/17 01:32:53;;;;;;;4.20;0.75;;;;;;;14.48;80.57;101287.75;10187358;28;20046;-68
2021/09/17 01:37:50;;;;;;;3.88;0.40;;;;;;;14.46;80.14;101287.28;10186579;28;20140;-68
2021/09/17 01:42:47;;;;;;;3.85;0.50;;;;;;;14.45;80.61;101285.66;10179977;28;20073;-67
2021/09/17 01:47:43;;;;;;;2.90;0.40;;;;;;;14.44;80.57;101289.56;10183393;28;20396;-69
2021/09/17 01:52:40;;;;;;;4.30;0.50;;;;;;;14.42;80.54;101286.31;10184455;28;20042;-67
2021/09/17 01:57:37;;;;;;;5.63;0.60;;;;;;;14.47;81.37;101283.38;10187000;28;20125;-66
2021/09/17 02:02:34;;;;;;;2.25;0.30;;;;;;;14.47;80.83;101283.38;10178106;28;20050;-67
2021/09/17 02:07:31;;;;;;;3.72;0.40;;;;;;;14.42;80.92;101280.81;10184412;28;20041;-68
2021/09/17 02:12:27;;;;;;;3.67;0.30;;;;;;;14.46;81.20;101276.28;10176906;28;20103;-66
2021/09/17 02:17:26;;;;;;;3.45;0.70;;;;;;;14.44;81.45;101272.25;10183971;28;20045;-67
2021/09/17 02:22:22;;;;;;;3.63;0.50;;;;;;;14.48;80.77;101276.75;10188275;28;20519;-66
2021/09/17 02:27:19;;;;;;;4.35;0.40;;;;;;;14.49;80.71;101280.31;10179106;28;20057;-68
2021/09/17 02:32:16;;;;;;;3.67;0.60;;;;;;;14.42;81.20;101275.31;10188122;28;20074;-69
2021/09/17 02:37:12;;;;;;;4.32;0.95;;;;;;;14.39;80.52;101276.00;10182661;28;20578;-68
2021/09/17 02:42:09;;;;;;;5.68;0.47;;;;;;;14.34;80.80;101272.59;10186302;28;20519;-68
2021/09/17 02:47:06;;;;;;;2.63;0.85;;;;;;;14.32;80.66;101270.19;10185614;28;20096;-68
2021/09/17 02:52:03;;;;;;;7.00;0.80;;;;;;;14.30;80.90;101272.47;10183878;28;20089;-68
2021/09/17 02:56:59;;;;;;;3.95;1.13;;;;;;;14.30;80.12;101272.47;10184368;28;20092;-68
2021/09/17 03:01:56;;;;;;;10.68;0.88;;;;;;;14.28;80.35;101280.22;10182990;28;20932;-67
2021/09/17 03:06:53;;;;;;;3.55;0.45;;;;;;;14.29;80.35;101276.34;10182157;28;20125;-68
2021/09/17 03:11:50;;;;;;;2.08;0.40;;;;;;;14.20;79.74;101279.13;10184109;28;20099;-68
2021/09/17 03:16:47;;;;;;;3.10;0.57;;;;;;;14.32;79.66;101270.19;10184978;28;20069;-69
2021/09/17 03:21:44;;;;;;;3.67;0.30;;;;;;;14.31;79.63;101268.56;10186708;28;20125;-68
2021/09/17 03:26:41;;;;;;;1.88;0.38;;;;;;;14.25;78.93;101264.38;10187661;28;20100;-69
2021/09/17 03:31:37;;;;;;;2.55;0.50;;;;;;;14.28;78.68;101274.72;10190583;28;20049;-69
2021/09/17 03:36:41;;;;;;;4.03;0.88;;;;;;;14.19;78.79;101284.97;10190403;28;20046;-68
2021/09/17 03:41:40;;;;;;;4.25;1.27;;;;;;;14.26;78.75;101288.00;10190667;28;20049;-69
2021/09/17 03:46:37;;;;;;;3.00;0.80;;;;;;;14.22;79.13;101282.34;10167928;28;20515;-68
2021/09/17 03:51:34;;;;;;;1.77;0.40;;;;;;;14.19;79.33;101271.22;10191604;28;20119;-68
2021/09/17 03:56:30;;;;;;;1.73;0.20;;;;;;;14.14;78.56;101268.63;10190559;28;20120;-69
2021/09/17 04:01:27;;;;;;;3.15;0.30;;;;;;;14.02;77.27;101270.13;10186713;28;20381;-68
2021/09/17 04:06:23;;;;;;;2.80;0.43;;;;;;;13.99;76.40;101267.22;10184123;28;20107;-68
2021/09/17 04:11:20;;;;;;;2.47;0.25;;;;;;;13.96;76.75;101279.66;10186002;28;20073;-68
2021/09/17 04:16:16;;;;;;;2.70;0.40;;;;;;;13.87;75.28;101284.38;10185167;28;20069;-69
2021/09/17 04:21:13;;;;;;;1.30;0.43;;;;;;;13.84;74.85;101282.28;10187472;28;20439;-68
2021/09/17 04:26:10;;;;;;;1.70;0.32;;;;;;;13.82;74.32;101290.06;10186833;28;20484;-68
2021/09/17 04:31:06;;;;;;;3.60;0.28;;;;;;;13.76;74.07;101281.19;10180773;28;20439;-69
2021/09/17 04:36:03;;;;;;;1.00;0.20;;;;;;;13.78;74.10;101283.59;10180002;28;20137;-69
2021/09/17 04:40:59;;;;;;;2.47;0.38;;;;;;;13.83;73.74;101283.41;10183000;28;20100;-68
2021/09/17 04:45:56;;;;;;;2.05;0.30;;;;;;;13.82;73.85;101284.56;10178543;28;20080;-69
2021/09/17 04:50:52;;;;;;;2.22;0.30;;;;;;;13.76;73.75;101294.09;10187110;28;20164;-69
2021/09/17 04:55:49;;;;;;;0.50;0.10;;;;;;;13.77;73.31;101304.78;10181257;28;20669;-69
2021/09/17 05:01:05;;;;;;;0.63;0.10;;;;;;;13.75;73.31;101306.22;10182817;28;20050;-68
2021/09/17 05:06:02;;;;;;;3.33;0.20;;;;;;;13.77;73.57;101306.72;10186176;28;20042;-68
2021/09/17 05:10:59;;;;;;;1.70;0.28;;;;;;;13.74;73.19;101304.59;10186864;28;20045;-68
2021/09/17 05:15:55;;;;;;;2.97;0.30;;;;;;;13.73;73.00;101303.78;10185452;28;20058;-68
2021/09/17 05:20:52;;;;;;;1.85;0.10;;;;;;;13.75;73.44;101306.22;10188230;28;20564;-67
2021/09/17 05:25:48;;;;;;;1.88;0.30;;;;;;;13.75;73.47;101312.53;10186668;28;20080;-68
2021/09/17 05:30:45;;;;;;;2.05;0.20;;;;;;;13.78;74.35;101322.88;10187831;28;20459;-68
2021/09/17 05:35:41;;;;;;;0.85;0.20;;;;;;;13.66;73.81;101319.97;10187966;28;20184;-67
2021/09/17 05:40:38;;;;;;;2.00;0.32;;;;;;;13.72;74.09;101312.38;10187772;28;20038;-68
2021/09/17 05:45:34;;;;;;;2.60;0.30;;;;;;;13.66;73.90;101318.03;10186200;28;20085;-68
2021/09/17 05:50:31;;;;;;;0.63;0.13;;;;;;;13.68;74.09;101313.00;10188599;28;20076;-67
2021/09/17 05:55:29;;;;;;;1.98;0.30;;;;;;;13.74;74.43;101323.84;10184603;28;20132;-68
2021/09/17 06:00:26;;;;;;;2.20;0.30;;;;;;;13.61;73.63;101315.44;10183598;28;20133;-68
2021/09/17 06:05:22;;;;;;;1.25;0.35;;;;;;;13.51;74.60;101329.53;10187566;28;20480;-68
2021/09/17 06:10:19;;;;;;;0.82;0.20;;;;;;;13.57;74.04;101322.72;10187214;28;20045;-67
2021/09/17 06:15:17;;;;;;;0.40;0.03;;;;;;;13.52;74.33;101320.13;10181887;28;20088;-67
2021/09/17 06:20:14;;;;;;;0.80;0.20;;;;;;;13.48;74.05;101324.66;10182193;28;20601;-67
2021/09/17 06:25:12;;;;;;;3.03;0.47;;;;;;;13.33;73.25;101317.69;10184459;28;20070;-67
2021/09/17 06:30:09;;;;;;;2.45;0.22;;;;;;;13.38;73.44;101319.47;10180035;28;20459;-67
2021/09/17 06:35:06;;;;;;;0.35;0.05;;;;;;;13.35;73.92;101320.13;10184210;28;20057;-67
2021/09/17 06:40:04;;;;;;;1.15;0.20;;;;;;;13.23;74.35;101324.28;10184458;28;20280;-67
2021/09/17 06:45:00;;;;;;;0.30;0.13;;;;;;;13.23;74.12;101329.78;10184195;28;20058;-67
2021/09/17 06:49:59;;;;;;;1.20;0.20;;;;;;;13.25;72.85;101335.75;10183666;28;20049;-67
2021/09/17 06:54:56;;;;;;;1.48;0.10;;;;;;;13.16;72.24;101334.94;10182389;28;20451;-66
2021/09/17 06:59:53;;;;;;;0.95;0.10;;;;;;;13.16;71.82;101340.44;10186135;28;20050;-66
2021/09/17 07:04:50;;;;;;;1.92;0.20;;;;;;;13.19;72.08;101333.50;10191996;28;20052;-66
2021/09/17 07:09:46;;;;;;;0.63;0.00;;;;;;;13.17;71.36;101320.06;10192574;28;20077;-67
2021/09/17 07:14:42;;;;;;;0.52;0.20;;;;;;;13.20;71.73;101335.88;10190812;28;20129;-67
2021/09/17 07:19:39;;;;;;;1.17;0.20;;;;;;;13.20;70.75;101318.63;10191700;28;20045;-66
2021/09/17 07:24:40;;;;;;;1.30;0.22;;;;;;;13.30;70.59;101323.00;10192961;28;20437;-67
2021/09/17 07:29:37;;;;;;;1.90;0.20;;;;;;;13.42;71.01;101331.44;10186930;28;20677;-67
2021/09/17 07:34:34;;;;;;;0.98;0.20;;;;;;;13.45;69.97;101325.31;10187207;28;20174;-68
2021/09/17 07:39:30;;;;;;;0.75;0.10;;;;;;;13.48;69.14;101324.66;10183089;28;20177;-68
2021/09/17 07:44:27;;;;;;;1.15;0.20;;;;;;;13.52;69.65;101325.63;10187360;28;20042;-68
2021/09/17 07:49:23;;;;;;;2.25;0.22;;;;;;;13.48;69.30;101341.13;10188631;28;20112;-68
2021/09/17 07:54:24;;;;;;;0.35;0.10;;;;;;;13.56;69.35;101332.09;10182258;28;20050;-68
2021/09/17 07:59:20;;;;;;;0.30;0.10;;;;;;;13.66;69.56;101337.25;10185647;28;20076;-68
2021/09/17 08:04:17;;;;;;;0.70;0.25;;;;;;;13.75;69.33;101339.22;10189358;28;20157;-68
2021/09/17 08:09:14;;;;;;;2.63;0.10;;;;;;;13.81;69.00;101343.41;10188689;28;20412;-69
2021/09/17 08:14:11;;;;;;;0.30;0.10;;;;;;;13.78;68.39;101338.56;10188874;28;20828;-67
2021/09/17 08:19:07;;;;;;;1.65;0.20;;;;;;;13.91;68.78;101337.56;10184210;28;20490;-68
2021/09/17 08:24:04;;;;;;;0.65;0.20;;;;;;;14.00;68.28;101341.13;10187637;28;20116;-67
2021/09/17 08:29:01;;;;;;;1.20;0.20;;;;;;;14.12;67.77;101354.19;10187763;28;20443;-68
2021/09/17 08:33:58;;;;;;;1.20;0.30;;;;;;;14.19;66.64;101361.97;10184909;28;20504;-67
2021/09/17 08:38:54;;;;;;;0.93;0.20;;;;;;;14.43;66.90;101353.94;10187873;28;20069;-67
2021/09/17 08:43:52;;;;;;;0.75;0.20;;;;;;;14.46;66.88;101347.81;10189171;28;20046;-67
2021/09/17 08:48:49;;;;;;;1.52;0.43;;;;;;;14.64;67.54;101358.78;10186222;28;20108;-67
2021/09/17 08:53:47;;;;;;;1.45;0.17;;;;;;;14.62;66.94;101366.53;10187513;28;20937;-68
2021/09/17 08:58:47;;;;;;;1.20;0.20;;;;;;;14.81;66.90;101360.66;10185494;28;20057;-68
2021/09/17 09:03:48;;;;;;;0.55;0.10;;;;;;;14.71;64.54;101372.81;10184471;28;20057;-68
2021/09/17 09:08:44;;;;;;;0.65;0.20;;;;;;;14.71;66.05;101359.06;10185143;28;20061;-68
2021/09/17 09:14:08;;;;;;;1.75;0.10;;;;;;;14.78;66.18;101367.63;10186977;28;20141;-70
2021/09/17 09:19:27;;;;;;;1.20;0.30;;;;;;;14.88;66.66;101370.03;10182752;28;20052;-68
2021/09/17 09:24:24;;;;;;;2.33;0.35;;;;;;;14.85;65.30;101370.69;10183655;28;20099;-68
2021/09/17 09:29:25;;;;;;;2.08;0.20;;;;;;;14.83;65.04;101367.44;10185274;28;20038;-68
2021/09/17 09:34:42;;;;;;;3.88;0.25;;;;;;;14.85;65.73;101370.69;10186916;28;20080;-68
2021/09/17 09:40:02;;;;;;;1.70;0.13;;;;;;;15.08;64.10;101370.41;10186134;28;20077;-68
2021/09/17 09:45:11;;;;;;;0.47;0.10;;;;;;;15.10;63.71;101376.38;10185203;28;20049;-68
2021/09/17 09:50:24;;;;;;;0.32;0.03;;;;;;;15.06;63.03;101369.91;10187629;28;20112;-68
2021/09/17 09:55:21;;;;;;;1.23;0.13;;;;;;;15.02;62.84;101369.78;10186521;28;20605;-68
2021/09/17 10:00:17;;;;;;;3.13;0.40;;;;;;;15.11;64.11;101369.75;10185406;28;20137;-68
2021/09/17 10:05:17;;;;;;;1.42;0.35;;;;;;;14.97;61.90;101371.91;10183102;28;20050;-68
2021/09/17 10:10:15;;;;;;;3.85;0.10;;;;;;;15.07;63.31;101366.03;10185113;28;20196;-67
2021/09/17 10:15:13;;;;;;;1.30;0.20;;;;;;;15.09;65.24;101364.56;10184415;28;20073;-68
2021/09/17 10:20:12;;;;;;;0.63;0.15;;;;;;;15.12;64.64;101368.59;10180135;28;20101;-68
2021/09/17 10:25:11;;;;;;;0.65;0.22;;;;;;;15.02;63.22;101363.47;10184123;28;20132;-68
2021/09/17 10:30:11;;;;;;;0.55;0.10;;;;;;;14.88;63.10;101372.78;10187579;28;20080;-68
2021/09/17 10:35:11;;;;;;;0.82;0.20;;;;;;;14.93;63.30;101372.56;10188383;28;20100;-65
2021/09/17 10:40:08;;;;;;;1.80;0.50;;;;;;;15.01;64.25;101375.63;10191184;28;20042;-67
2021/09/17 10:45:05;;;;;;;1.20;0.20;;;;;;;14.99;63.53;101375.13;10191565;28;20484;-68
2021/09/17 10:50:04;;;;;;;2.55;0.40;;;;;;;15.00;63.61;101374.00;10192477;28;20125;-67
2021/09/17 10:55:00;;;;;;;0.52;0.25;;;;;;;15.01;63.14;101379.16;10193721;28;20041;-66
2021/09/17 10:59:59;;;;;;;2.58;0.50;;;;;;;15.06;62.99;101375.41;10192418;28;20116;-67
2021/09/17 11:05:14;;;;;;;1.45;0.50;;;;;;;15.08;62.42;101378.66;10192957;28;20034;-67
2021/09/17 11:10:25;;;;;;;3.90;1.45;;;;;;;15.22;63.72;101378.41;10184647;28;20042;-67
2021/09/17 11:15:21;;;;;;;1.60;0.50;;;;;;;15.24;62.45;101371.44;10192649;28;20080;-67
2021/09/17 11:20:22;;;;;;;1.67;0.32;;;;;;;15.25;63.32;101375.81;10190496;28;20124;-68
2021/09/17 11:25:30;;;;;;;1.63;0.20;;;;;;;15.20;62.02;101366.91;10188740;28;20145;-67
2021/09/17 11:30:29;;;;;;;4.85;1.40;;;;;;;15.25;63.18;101364.00;10191827;28;20129;-67
2021/09/17 11:35:26;;;;;;;3.33;0.80;;;;;;;15.36;62.97;101379.81;10189910;28;20104;-67
2021/09/17 11:40:26;;;;;;;2.15;0.50;;;;;;;15.23;62.34;101386.34;10195962;28;20671;-68
2021/09/17 11:45:26;;;;;;;0.85;0.30;;;;;;;15.18;62.94;101383.81;10188003;28;20077;-67
2021/09/17 11:50:27;;;;;;;3.88;1.17;;;;;;;15.16;63.24;101375.06;10190677;28;20642;-67
2021/09/17 11:55:26;;;;;;;1.92;0.60;;;;;;;15.13;64.46;101370.19;10191046;28;20046;-67
2021/09/17 12:00:24;;;;;;;1.17;0.28;;;;;;;15.10;64.27;101373.63;10189406;28;20157;-67
2021/09/17 12:05:26;;;;;;;1.17;0.50;;;;;;;15.14;65.23;101372.63;10177207;28;20455;-68
2021/09/17 12:10:35;;;;;;;3.20;1.25;;;;;;;15.24;65.75;101376.13;10188817;28;20058;-68
2021/09/17 12:15:38;;;;;;;6.53;2.03;;;;;;;15.17;65.50;101371.16;10187870;28;20100;-67
2021/09/17 12:20:54;;;;;;;2.40;0.93;;;;;;;15.12;65.78;101374.91;10191033;28;20407;-67
2021/09/17 12:26:18;;;;;;;2.30;0.57;;;;;;;15.19;65.55;101374.38;10172895;28;20120;-68
2021/09/17 12:31:32;;;;;;;2.15;0.50;;;;;;;15.38;64.81;101364.88;10192998;28;20046;-68
2021/09/17 12:36:29;;;;;;;3.17;0.50;;;;;;;15.64;63.36;101368.25;10190172;28;20459;-68
2021/09/17 12:41:25;;;;;;;1.50;0.43;;;;;;;15.59;63.09;101373.94;10191423;28;20077;-68
2021/09/17 12:46:39;;;;;;;2.10;0.50;;;;;;;15.51;61.24;101385.84;10186664;28;20042;-67
2021/09/17 12:51:36;;;;;;;4.63;0.30;;;;;;;15.34;61.07;101384.84;10188263;28;20525;-67
2021/09/17 12:56:32;;;;;;;2.55;0.63;;;;;;;15.49;60.87;101382.63;10185971;28;20077;-67
2021/09/17 13:01:29;;;;;;;1.23;0.40;;;;;;;15.74;59.13;101378.09;10188966;28;20092;-67
2021/09/17 13:06:26;;;;;;;1.58;0.52;;;;;;;15.87;58.43;101376.19;10188930;28;20034;-68
2021/09/17 13:11:24;;;;;;;1.55;0.35;;;;;;;15.76;58.30;101371.09;10181369;28;20046;-67
2021/09/17 13:16:20;;;;;;;0.50;0.15;;;;;;;15.74;58.86;101367.88;10187659;28;20143;-70
2021/09/17 13:21:17;;;;;;;1.30;0.17;;;;;;;15.63;58.71;101361.13;10189177;28;20045;-68
2021/09/17 13:26:14;;;;;;;2.88;0.30;;;;;;;15.63;59.04;101368.59;10188102;28;20049;-67
2021/09/17 13:31:10;;;;;;;1.40;0.38;;;;;;;15.71;59.55;101374.06;10194067;28;20141;-68
2021/09/17 13:36:07;;;;;;;2.10;0.30;;;;;;;15.75;60.08;101374.97;10188387;28;20056;-68
2021/09/17 13:41:03;;;;;;;1.10;0.40;;;;;;;15.64;60.58;101368.25;10186478;28;20041;-68
2021/09/17 13:46:00;;;;;;;0.98;0.30;;;;;;;15.43;59.84;101382.00;10186548;28;20042;-68
2021/09/17 13:50:58;;;;;;;2.00;0.52;;;;;;;15.52;61.16;101365.41;10181184;28;20104;-68
2021/09/17 13:55:54;;;;;;;8.38;3.28;;;;;;;15.54;61.08;101363.13;10186672;28;20073;-68
2021/09/17 14:00:51;;;;;;;3.40;1.27;;;;;;;15.64;61.19;101368.25;10188355;28;20073;-68
2021/09/17 14:05:48;;;;;;;1.77;0.40;;;;;;;15.78;61.28;101363.31;10187219;28;20108;-68
2021/09/17 14:10:44;;;;;;;1.50;0.50;;;;;;;15.77;60.81;101366.38;10183741;28;20045;-68
2021/09/17 14:15:41;;;;;;;2.70;0.63;;;;;;;15.64;61.29;101370.19;10185578;28;20123;-67
2021/09/17 14:20:37;;;;;;;2.25;0.47;;;;;;;15.53;62.26;101367.03;10184297;28;20050;-68
2021/09/17 14:25:34;;;;;;;2.03;0.50;;;;;;;15.64;61.96;101361.91;10182466;28;20137;-68
2021/09/17 14:30:30;;;;;;;2.15;0.50;;;;;;;15.61;61.55;101357.88;10186225;28;20041;-68
2021/09/17 14:35:28;;;;;;;0.80;0.30;;;;;;;15.54;61.50;101357.63;10186875;28;20069;-68
2021/09/17 14:40:28;;;;;;;1.20;0.40;;;;;;;15.68;61.74;101358.16;10189211;28;20080;-68
2021/09/17 14:45:25;;;;;;;0.75;0.30;;;;;;;15.74;60.91;101351.31;10184473;28;20069;-68
2021/09/17 14:50:22;;;;;;;1.02;0.20;;;;;;;15.89;60.67;101351.84;10186336;28;20081;-68
2021/09/17 14:55:19;;;;;;;1.77;0.30;;;;;;;16.10;61.08;101351.81;10186607;28;20061;-68
2021/09/17 15:00:16;;;;;;;2.65;0.40;;;;;;;16.12;59.44;101344.81;10183484;28;20077;-68
2021/09/17 15:05:12;;;;;;;2.20;0.50;;;;;;;16.20;59.57;101346.69;10184692;28;20499;-68
2021/09/17 15:10:09;;;;;;;1.95;0.50;;;;;;;16.19;59.61;101345.03;10183776;28;20045;-68
2021/09/17 15:15:06;;;;;;;1.98;0.52;;;;;;;16.39;60.02;101345.34;10183072;28;20046;-68
2021/09/17 15:20:04;;;;;;;5.00;0.93;;;;;;;16.10;59.66;101352.59;10186774;28;20099;-68
2021/09/17 15:25:00;;;;;;;0.55;0.30;;;;;;;16.09;58.79;101345.50;10193287;28;20054;-68
2021/09/17 15:29:57;;;;;;;1.85;0.22;;;;;;;15.83;59.30;101354.00;10193025;28;20130;-68
2021/09/17 15:34:53;;;;;;;2.15;0.75;;;;;;;15.80;60.56;101353.88;10191609;28;20557;-68
2021/09/17 15:39:52;;;;;;;5.45;2.45;;;;;;;15.69;60.20;101343.25;10192405;28;20069;-68
2021/09/17 15:44:48;;;;;;;3.58;1.35;;;;;;;15.69;61.00;101343.25;10185496;28;20045;-68
2021/09/17 15:49:45;;;;;;;5.15;2.35;;;;;;;15.61;61.12;101346.84;10189458;28;20046;-68
2021/09/17 15:54:41;;;;;;;6.68;2.35;;;;;;;15.54;61.47;101341.09;10192344;28;20100;-68
2021/09/17 15:59:38;;;;;;;5.18;0.82;;;;;;;15.53;61.78;101339.47;10192258;28;20488;-68
2021/09/17 16:04:34;;;;;;;3.08;0.90;;;;;;;15.51;62.27;101341.75;10194982;28;20123;-67
2021/09/17 16:09:31;;;;;;;4.10;1.65;;;;;;;15.41;62.03;101347.66;10186469;28;20042;-70
2021/09/17 16:14:27;;;;;;;3.70;1.30;;;;;;;15.38;62.70;101351.91;10188987;28;20077;-69
2021/09/17 16:19:24;;;;;;;5.70;2.30;;;;;;;15.29;62.26;101351.97;10190455;28;20471;-69
2021/09/17 16:24:21;;;;;;;2.60;1.00;;;;;;;15.26;62.47;101360.88;10190589;28;20088;-69
2021/09/17 16:29:17;;;;;;;4.90;1.58;;;;;;;15.18;62.34;101350.75;10188088;28;20084;-69
2021/09/17 16:34:14;;;;;;;4.45;1.52;;;;;;;15.11;63.26;101361.50;10174503;28;20591;-69
2021/09/17 16:39:13;;;;;;;6.47;2.22;;;;;;;15.08;63.53;101356.63;10178008;28;20143;-69
2021/09/17 16:44:10;;;;;;;6.55;2.92;;;;;;;15.00;64.52;101357.50;10190332;28;20471;-69
2021/09/17 16:49:07;;;;;;;6.55;1.63;;;;;;;15.04;64.44;101359.25;10189043;28;20061;-69
2021/09/17 16:54:04;;;;;;;3.38;0.73;;;;;;;15.08;64.64;101356.63;10190163;28;20049;-69
2021/09/17 16:59:01;;;;;;;3.15;0.77;;;;;;;15.06;64.06;101364.41;10185933;28;20038;-69
2021/09/17 17:03:58;;;;;;;4.63;1.75;;;;;;;14.96;64.67;101360.09;10189483;28;20038;-68
2021/09/17 17:08:55;;;;;;;4.35;1.40;;;;;;;15.00;64.90;101354.75;10188501;28;20076;-69
2021/09/17 17:13:52;;;;;;;5.35;2.45;;;;;;;15.01;64.82;101362.66;10184241;28;20562;-68
2021/09/17 17:18:48;;;;;;;4.03;1.10;;;;;;;14.91;65.39;101355.56;10168644;28;20132;-68
2021/09/17 17:23:45;;;;;;;5.15;1.55;;;;;;;14.88;65.09;101359.00;10184689;28;20080;-68
2021/09/17 17:28:43;;;;;;;4.88;1.00;;;;;;;14.80;65.31;101362.59;10180206;28;20597;-68
2021/09/17 17:33:40;;;;;;;1.65;0.55;;;;;;;14.71;65.75;101359.06;10186094;28;20054;-68
2021/09/17 17:38:37;;;;;;;2.72;0.90;;;;;;;14.72;65.87;101364.25;10186436;28;20522;-68
2021/09/17 17:43:33;;;;;;;3.67;1.00;;;;;;;14.67;65.84;101369.16;10181668;28;20077;-68
2021/09/17 17:48:30;;;;;;;7.72;3.75;;;;;;;14.64;65.98;101372.53;10177788;28;20096;-68
2021/09/17 17:53:26;;;;;;;5.00;1.60;;;;;;;14.50;66.30;101372.72;10181360;28;20088;-68
2021/09/17 17:58:23;;;;;;;9.82;2.83;;;;;;;14.42;66.23;101384.56;10180834;28;20081;-68
2021/09/17 18:03:19;;;;;;;8.25;3.78;;;;;;;14.43;66.74;101372.41;10185175;28;20042;-68
2021/09/17 18:08:16;;;;;;;4.65;2.17;;;;;;;14.43;67.21;101378.72;10184218;28;20053;-68
2021/09/17 18:13:13;;;;;;;6.72;3.15;;;;;;;14.40;66.66;101387.63;10183177;28;20049;-68
2021/09/17 18:18:09;;;;;;;7.03;2.92;;;;;;;14.42;67.09;101388.13;10181452;28;20048;-68
2021/09/17 18:23:06;;;;;;;3.83;1.42;;;;;;;14.41;67.64;101397.50;10185708;28;20049;-68
2021/09/17 18:28:04;;;;;;;3.85;1.58;;;;;;;14.46;67.68;101400.09;10180643;28;20455;-68
2021/09/17 18:33:01;;;;;;;2.08;0.82;;;;;;;14.44;68.05;101402.34;10185704;28;20142;-68
2021/09/17 18:37:57;;;;;;;2.67;0.80;;;;;;;14.34;68.24;101404.63;10183187;28;20104;-68
2021/09/17 18:42:54;;;;;;;4.93;1.20;;;;;;;14.31;68.75;101408.84;10183583;28;20049;-68
2021/09/17 18:47:51;;;;;;;3.53;1.30;;;;;;;14.32;68.76;101408.53;10181854;28;20126;-68
2021/09/17 18:52:48;;;;;;;3.10;1.10;;;;;;;14.33;68.47;101414.84;10185925;28;20142;-68
2021/09/17 18:57:45;;;;;;;3.65;1.40;;;;;;;14.33;69.37;101403.84;10182709;28;20056;-68
2021/09/17 19:02:41;;;;;;;5.03;2.05;;;;;;;14.27;69.04;101416.97;10187160;28;20597;-68
2021/09/17 19:07:39;;;;;;;3.95;1.67;;;;;;;14.23;69.32;101416.00;10189638;28;20419;-68
2021/09/17 19:12:36;;;;;;;4.82;1.77;;;;;;;14.12;69.79;101414.69;10188553;28;20046;-68
2021/09/17 19:17:35;;;;;;;4.80;1.90;;;;;;;14.14;69.91;101419.88;10186715;28;20045;-67
2021/09/17 19:22:31;;;;;;;6.05;3.13;;;;;;;14.13;70.13;101426.50;10189946;28;20046;-68
2021/09/17 19:27:29;;;;;;;6.13;2.85;;;;;;;14.16;69.50;101439.63;10188563;28;20048;-67
2021/09/17 19:32:25;;;;;;;4.60;2.15;;;;;;;14.15;69.82;101429.75;10185552;28;20108;-69
2021/09/17 19:37:22;;;;;;;3.00;1.13;;;;;;;14.10;69.13;101436.22;10184370;28;20464;-67
2021/09/17 19:42:22;;;;;;;4.10;1.90;;;;;;;14.03;70.14;101444.94;10192242;28;20054;-68
2021/09/17 19:47:19;;;;;;;5.32;2.40;;;;;;;14.07;69.80;101445.91;10191956;28;20631;-67
2021/09/17 19:52:17;;;;;;;4.85;2.10;;;;;;;14.02;70.54;101448.84;10190850;28;20146;-67
2021/09/17 19:57:13;;;;;;;6.32;2.40;;;;;;;14.02;70.12;101443.34;10191019;28;20104;-67
2021/09/17 20:02:10;;;;;;;4.60;2.40;;;;;;;14.04;69.84;101452.06;10191921;28;20101;-67
2021/09/17 20:07:07;;;;;;;6.07;2.30;;;;;;;13.89;70.89;101444.31;10190583;28;20061;-66
2021/09/17 20:12:04;;;;;;;6.80;2.08;;;;;;;13.95;70.66;101445.75;10186895;28;20092;-70
2021/09/17 20:17:00;;;;;;;6.78;2.70;;;;;;;13.96;70.49;101450.13;10188573;28;20073;-69
2021/09/17 20:21:57;;;;;;;5.80;2.67;;;;;;;13.96;70.75;101450.13;10190573;28;20050;-69
2021/09/17 20:26:53;;;;;;;6.43;2.70;;;;;;;13.86;70.34;101451.25;10190837;28;20073;-68
2021/09/17 20:31:50;;;;;;;4.60;2.25;;;;;;;13.84;70.45;101452.72;10193373;28;20077;-68
2021/09/17 20:36:48;;;;;;;3.38;1.17;;;;;;;13.83;70.70;101451.06;10189413;28;20124;-68
2021/09/17 20:41:46;;;;;;;6.20;2.00;;;;;;;13.84;70.99;101447.22;10190820;28;20050;-67
2021/09/17 20:46:42;;;;;;;9.82;3.60;;;;;;;13.85;71.04;101443.31;10192255;28;20049;-68
2021/09/17 20:51:39;;;;;;;8.93;4.50;;;;;;;13.86;71.29;101448.50;10184610;28;20435;-67
2021/09/17 20:56:39;;;;;;;6.95;2.70;;;;;;;13.79;71.56;101444.63;10190503;28;20397;-67
2021/09/17 21:01:36;;;;;;;5.00;2.30;;;;;;;13.72;71.57;101453.34;10189374;28;20050;-69
2021/09/17 21:06:32;;;;;;;3.50;1.20;;;;;;;13.72;72.25;101455.28;10189233;28;20041;-69
2021/09/17 21:11:29;;;;;;;4.65;1.70;;;;;;;13.74;72.16;101442.00;10185534;28;22028;-67
2021/09/17 21:16:25;;;;;;;5.20;1.10;;;;;;;13.73;72.50;101452.19;10191002;28;20751;-69
2021/09/17 21:21:22;;;;;;;2.83;1.27;;;;;;;13.77;72.99;101457.88;10188633;28;20567;-72
2021/09/17 21:26:18;;;;;;;3.13;1.20;;;;;;;13.80;73.04;101454.47;10189402;28;20562;-68
2021/09/17 21:31:15;;;;;;;4.72;1.88;;;;;;;13.79;72.72;101461.13;10190805;28;20108;-69
2021/09/17 21:36:11;;;;;;;3.50;1.00;;;;;;;13.80;72.94;101458.03;10189775;28;20057;-69
2021/09/17 21:41:08;;;;;;;5.53;1.48;;;;;;;13.79;72.88;101466.63;10187820;28;20070;-69
2021/09/17 21:46:04;;;;;;;6.53;2.80;;;;;;;13.76;72.98;101461.75;10189076;28;20080;-70
2021/09/17 21:51:01;;;;;;;7.80;3.88;;;;;;;13.71;73.06;101464.66;10190927;28;20072;-69
2021/09/17 21:55:57;;;;;;;3.85;1.20;;;;;;;13.66;74.16;101468.34;10188761;28;20042;-69
2021/09/17 22:00:54;;;;;;;6.63;2.10;;;;;;;13.70;74.21;101463.03;10188771;28;20436;-68
2021/09/17 22:05:50;;;;;;;4.05;1.48;;;;;;;13.64;74.56;101471.41;10187539;28;20068;-71
2021/09/17 22:10:47;;;;;;;4.60;1.80;;;;;;;13.63;74.60;101464.31;10185450;28;20046;-70
2021/09/17 22:15:44;;;;;;;2.90;1.20;;;;;;;13.63;75.14;101469.81;10187143;28;20099;-69
2021/09/17 22:20:40;;;;;;;3.83;1.60;;;;;;;13.66;75.12;101463.66;10186752;28;20108;-69
2021/09/17 22:25:37;;;;;;;3.83;1.50;;;;;;;13.64;75.77;101470.59;10186286;28;20237;-69
2021/09/17 22:30:33;;;;;;;3.08;1.10;;;;;;;13.64;76.06;101463.16;10186870;28;20413;-69
2021/09/17 22:35:30;;;;;;;3.55;1.48;;;;;;;13.68;75.98;101464.16;10188051;28;20049;-70
2021/09/17 22:40:26;;;;;;;2.75;1.35;;;;;;;13.65;76.43;101459.31;10187665;28;20069;-70
2021/09/17 22:45:23;;;;;;;2.88;0.98;;;;;;;13.60;76.69;101459.47;10187253;28;20100;-67
2021/09/17 22:50:20;;;;;;;5.75;1.65;;;;;;;13.63;76.31;101464.31;10185714;28;20488;-67